createdAt,value
2018-02-27T00:06:17.628Z,-8.06
2018-02-27T00:15:54.147Z,-8.15
2018-02-27T00:25:35.103Z,-8.15
2018-02-27T00:35:03.351Z,-8.25
2018-02-27T00:44:39.849Z,-8.35
2018-02-27T00:54:16.194Z,-8.25
2018-02-27T01:03:53.446Z,-8.35
2018-02-27T01:13:28.887Z,-8.25
2018-02-27T01:23:09.629Z,-8.35
2018-02-27T01:32:39.222Z,-8.55
2018-02-27T01:42:12.728Z,-8.45
2018-02-27T01:51:49.029Z,-8.55
2018-02-27T02:01:26.102Z,-8.55
2018-02-27T02:11:03.402Z,-8.64
2018-02-27T02:20:38.237Z,-8.84
2018-02-27T02:30:14.745Z,-8.64
2018-02-27T02:39:51.513Z,-8.84
2018-02-27T02:49:27.150Z,-8.74
2018-02-27T02:59:08.277Z,-8.84
2018-02-27T03:08:44.792Z,-8.84
2018-02-27T03:18:26.152Z,-8.84
2018-02-27T03:27:55.379Z,-8.84
2018-02-27T03:37:30.701Z,-8.84
2018-02-27T03:47:07.684Z,-8.84
2018-02-27T03:56:44.867Z,-8.84
2018-02-27T04:06:25.746Z,-8.94
2018-02-27T04:15:53.666Z,-8.84
2018-02-27T04:25:30.393Z,-8.94
2018-02-27T04:35:06.894Z,-9.04
2018-02-27T04:44:43.519Z,-9.04
2018-02-27T04:54:20.432Z,-8.94
2018-02-27T05:03:57.308Z,-8.94
2018-02-27T05:13:33.709Z,-8.94
2018-02-27T05:23:10.128Z,-8.94
2018-02-27T05:32:46.643Z,-8.94
2018-02-27T05:42:23.505Z,-8.84
2018-02-27T05:52:03.325Z,-8.94
2018-02-27T06:01:31.369Z,-8.94
2018-02-27T06:11:08.185Z,-8.94
2018-02-27T06:20:44.943Z,-8.94
2018-02-27T06:30:22.073Z,-8.94
2018-02-27T06:39:58.451Z,-8.74
2018-02-27T06:49:35.252Z,-8.64
2018-02-27T06:59:12.276Z,-8.55
2018-02-27T07:08:48.969Z,-8.55
2018-02-27T07:18:26.228Z,-8.35
2018-02-27T07:28:02.619Z,-8.35
2018-02-27T07:37:39.331Z,-8.25
2018-02-27T07:47:16.499Z,-7.86
2018-02-27T07:56:53.184Z,-7.67
2018-02-27T08:06:29.665Z,-7.96
2018-02-27T08:16:06.126Z,-7.67
2018-02-27T08:25:43.059Z,-7.96
2018-02-27T08:35:19.085Z,-7.67
2018-02-27T08:44:55.168Z,-7.76
2018-02-27T08:54:31.579Z,-7.57
2018-02-27T09:04:08.422Z,-7.37
2018-02-27T09:13:44.802Z,-7.27
2018-02-27T09:23:21.731Z,-6.88
2018-02-27T09:32:58.616Z,-6.59
2018-02-27T09:42:35.520Z,-6.39
2018-02-27T09:52:13.189Z,-5.61
2018-02-27T10:01:49.866Z,-5.71
2018-02-27T10:11:26.674Z,-5.32
2018-02-27T10:21:04.157Z,-4.54
2018-02-27T10:30:41.227Z,-4.73
2018-02-27T10:40:17.167Z,-4.93
2018-02-27T10:49:53.367Z,-4.44
2018-02-27T10:59:30.514Z,-3.17
2018-02-27T11:09:05.481Z,-3.66
2018-02-27T11:18:42.322Z,-2.68
2018-02-27T11:28:18.392Z,-3.66
2018-02-27T11:37:53.050Z,-3.46
2018-02-27T11:47:28.044Z,-4.05
2018-02-27T11:57:04.841Z,-3.56
2018-02-27T12:06:39.832Z,-3.46
2018-02-27T12:16:15.111Z,-3.66
2018-02-27T12:25:50.755Z,-4.05
2018-02-27T12:35:26.089Z,-4.34
2018-02-27T12:45:06.416Z,-4.14
2018-02-27T12:54:34.378Z,-4.44
2018-02-27T13:04:29.263Z,-4.83
2018-02-27T13:14:23.799Z,-5.51
2018-02-27T13:24:17.830Z,-5.81
2018-02-27T13:34:14.723Z,-5.71
2018-02-27T13:44:02.991Z,-5.61
2018-02-27T13:53:55.870Z,-6.00
2018-02-27T14:03:47.787Z,-5.90
2018-02-27T14:13:37.531Z,-6.00
2018-02-27T14:23:33.559Z,-5.90
2018-02-27T14:33:28.801Z,-6.00
2018-02-27T14:43:25.747Z,-5.81
2018-02-27T14:53:10.878Z,-5.81
2018-02-27T15:03:07.288Z,-6.39
2018-02-27T15:13:02.978Z,-6.49
2018-02-27T15:22:58.569Z,-6.69
2018-02-27T15:32:56.138Z,-6.69
2018-02-27T15:42:52.811Z,-6.88
2018-02-27T15:52:49.181Z,-7.18
2018-02-27T16:02:45.484Z,-7.37
2018-02-27T16:12:39.214Z,-7.86
2018-02-27T16:22:35.124Z,-7.86
2018-02-27T16:32:31.033Z,-7.76
2018-02-27T16:42:22.490Z,-7.66
2018-02-27T16:52:18.996Z,-7.67
2018-02-27T17:02:05.593Z,-7.86
2018-02-27T17:12:01.507Z,-7.86
2018-02-27T17:21:55.071Z,-8.06
2018-02-27T17:31:49.696Z,-8.06
2018-02-27T17:41:36.463Z,-8.16
2018-02-27T17:51:30.802Z,-8.25
2018-02-27T18:01:24.605Z,-8.55
2018-02-27T18:11:02.399Z,-8.74
2018-02-27T18:20:38.182Z,-8.84
2018-02-27T18:30:14.537Z,-8.94
2018-02-27T18:40:10.299Z,-9.33
2018-02-27T18:49:44.287Z,-9.23
2018-02-27T18:59:24.970Z,-9.23
2018-02-27T19:08:53.393Z,-9.33
2018-02-27T19:18:33.232Z,-9.72
2018-02-27T19:28:05.816Z,-9.52
2018-02-27T19:37:33.966Z,-9.72
2018-02-27T19:47:10.606Z,-9.72
2018-02-27T19:56:46.707Z,-10.01
2018-02-27T20:06:41.636Z,-10.99
2018-02-27T20:16:34.976Z,-10.70
2018-02-27T20:26:21.677Z,-11.28
2018-02-27T20:35:57.901Z,-10.60
2018-02-27T20:45:53.437Z,-11.19
2018-02-27T20:55:47.273Z,-11.38
2018-02-27T21:05:41.125Z,-11.67
2018-02-27T21:15:37.541Z,-11.77
2018-02-27T21:25:33.517Z,-12.16
2018-02-27T21:35:25.675Z,-12.65
2018-02-27T21:45:17.765Z,-12.95
2018-02-27T21:55:13.673Z,-13.04
2018-02-27T22:05:09.272Z,-13.24
2018-02-27T22:15:03.174Z,-13.44
2018-02-27T22:25:01.264Z,-13.73
2018-02-27T22:34:57.907Z,-13.83
2018-02-27T22:44:52.184Z,-13.73
2018-02-27T22:54:50.690Z,-13.93
2018-02-27T23:04:49.128Z,-13.93
2018-02-27T23:14:46.286Z,-13.92
2018-02-27T23:24:42.855Z,-13.93
2018-02-27T23:34:41.009Z,-14.02
2018-02-27T23:44:36.868Z,-14.12
2018-02-27T23:54:33.834Z,-14.02
